Portada
METAR-TAF:

METAR-TAF

Aeropuertos :

Aeropuerto de Jerez

Jerez de la Frontera, España

latitud: 36-45N, longitud: 006-04W, altitud: 27 m

Observación

El informe se hizo hace 25 minutos, a las 20:00 UTC
Viento 4 kt del este
Temperatura 13°C
Humedad 88%
Presión 1014 hPa
Visibilidad 10 km o más
Escasas nubes a una altura de 2500 ft

METAR: LEJR 052000Z 10004KT 9999 FEW025 13/11 Q1014

Hora: 21:25 (20:25 UTC)

Pronóstico

El informe se hizo hace 3 horas y 25 minutos, a las 17:00 UTC
Pronóstico válido del 05 a las 18 UTC al 06 a las 18 UTC
Viento 10 kt del sur-suroeste
Visibilidad 10 km o más
Nubes dispersas a una altura de 3500 ft
Evolucionando progresivamente
del 05 a las 18 UTC al 05 a las 21 UTC
Viento 6 kt del este-noreste
Probabilidad 30% :
Temporalmente
del 06 a las 12 UTC al 06 a las 18 UTC
Visibilidad: 4000 m
lluvia

TAF: LEJR 051700Z 0518/0618 21010KT 9999 SCT035 TX20/0614Z TN10/0606Z BECMG 0518/0521 06006KT PROB30 TEMPO 0612/0618 4000 RA

Observaciones y pronósticos meteorológicos de más de 4000 aeropuertos (mensajes METAR y TAF).

Los puntos amarillos y rojos representan las estaciones disponibles.

Ponga el ratón en el punto deseado para ver el nombre de la estación.

Haga clic para ver las observaciones y los pronósticos meteorológicos.

Para cambiar el mapa : haga clic en los botones verdes con una cruz de color negro para hacer un zoom, en el botón verde con un guión para alejar o en las flechas verdes para mapas adyacentes.


METAR-TAF: